首页
METAR-TAF:

METAR-TAF

机场 :

查尔斯顿, 南卡罗来纳州, 美国

纬度: 32-53-56N, 经度: 080-02-26W, 海拔: 14米

当前天气观测

该预报发布于30分钟前的18:25 UTC
风速3节,风向南转南东
温度 17°C
湿度 88%
气压 1021 hPa
能見度: 4.8公里
散云层高于1000英尺
多云层高于3300英尺
阴天层高于4700英尺
雨, 轻雾

METAR: KCHS 181825Z 15003KT 3SM RA BR SCT010 BKN033 OVC047 17/15 A3016 RMK AO2 SFC VIS 5 P0002 T01670150

时间: 13:55 (18:55 UTC)

预报

该预报发布于1小时和3分钟前的17:52 UTC
预报有效从18日的 18点(UTC)到 19日的 18点(UTC)
风速5节,风向
能見度: 8.0公里
多云层高于800英尺
阴天层高于1500英尺
小阵雨, 轻雾
从 18日的 2200点(UTC)
风速3节,风向多变
能見度: 6.4公里
散云层高于500英尺
阴天层高于700英尺
轻雾, 附近有阵雨
从 19日的 1100点(UTC)
风速5节,风向北转西北
能見度: 3.2公里
散云层高于300英尺
阴天层高于500英尺
阵雨, 轻雾

TAF: KCHS 181752Z 1818/1918 18005KT 5SM -SHRA BR BKN008 OVC015 FM182200 VRB03KT 4SM BR VCSH SCT005 OVC007 FM191100 34005KT 2SM SHRA BR SCT003 OVC005

超过4000个机场的气象观测和天气预报(METAR&TAF报告)。

可查询的气象台以黄色和红色小点在地图上表示。

将鼠标移到小点上方,可查看气象台名称。

然后点击查看天气观测和预报。

如需切换地图:点击带黑十字的绿色按钮放大地图;点击带横线的绿色按钮缩小地图;或者点击绿色箭头查看邻近地区的地图。


METAR-TAF: